Time;durP1;ratioP1;P1;durP2;ratioP2;P2;SDS_P1;SDS_P2;PMS_P1;PMS_P2;Temp;Humidity;BMP_temperature;BMP_pressure;BME280_temperature;BME280_humidity;BME280_pressure;Samples;Min_cycle;Max_cycle;Signal;HPM_P1;HPM_P2
2023/05/17 00:01:59;;;;;;;;;8.25;8.25;;;;;;;;5048230;28;10944;-80
2023/05/17 00:04:27;;;;;;;;;10.00;10.00;;;;;;;;5038845;28;11006;-80
2023/05/17 00:06:54;;;;;;;;;10.75;9.00;;;;;;;;5035373;28;10971;-80
2023/05/17 00:09:21;;;;;;;;;8.00;8.00;;;;;;;;5045678;28;11687;-81
2023/05/17 00:11:48;;;;;;;;;11.25;11.25;;;;;;;;5048322;28;10921;-80
2023/05/17 00:14:16;;;;;;;;;13.00;12.00;;;;;;;;5036055;28;10890;-80
2023/05/17 00:16:43;;;;;;;;;13.00;12.50;;;;;;;;5043879;28;11137;-80
2023/05/17 00:19:12;;;;;;;;;7.75;7.00;;;;;;;;5043986;28;10959;-80
2023/05/17 00:21:39;;;;;;;;;10.00;8.50;;;;;;;;5048965;28;11057;-80
2023/05/17 00:24:08;;;;;;;;;10.00;10.00;;;;;;;;5046969;28;10967;-80
2023/05/17 00:26:35;;;;;;;;;10.50;10.00;;;;;;;;5045387;28;10825;-80
2023/05/17 00:29:02;;;;;;;;;12.75;12.75;;;;;;;;5049151;28;11035;-80
2023/05/17 00:31:29;;;;;;;;;18.25;17.75;;;;;;;;5046698;28;11053;-82
2023/05/17 00:33:57;;;;;;;;;15.75;12.00;;;;;;;;5034968;28;11261;-81
2023/05/17 00:36:25;;;;;;;;;11.75;11.25;;;;;;;;5046040;28;10942;-80
2023/05/17 00:38:53;;;;;;;;;10.50;10.50;;;;;;;;5039277;28;11020;-81
2023/05/17 00:41:20;;;;;;;;;9.00;9.00;;;;;;;;5045278;28;10932;-82
2023/05/17 00:43:47;;;;;;;;;10.50;9.00;;;;;;;;5037024;28;10882;-81
2023/05/17 00:46:14;;;;;;;;;14.00;11.25;;;;;;;;5043530;28;11723;-81
2023/05/17 00:48:42;;;;;;;;;8.25;8.25;;;;;;;;5048161;28;11086;-81
2023/05/17 00:51:10;;;;;;;;;7.75;6.75;;;;;;;;5036152;28;11638;-82
2023/05/17 00:53:38;;;;;;;;;10.25;10.25;;;;;;;;5034425;28;10924;-81
2023/05/17 00:56:06;;;;;;;;;11.75;9.00;;;;;;;;5042076;28;10902;-81
2023/05/17 00:58:33;;;;;;;;;10.50;10.50;;;;;;;;5046810;28;10963;-81
2023/05/17 01:01:01;;;;;;;;;10.00;10.00;;;;;;;;5036517;28;11194;-81
2023/05/17 01:03:28;;;;;;;;;14.00;11.00;;;;;;;;5036355;28;11169;-81
2023/05/17 01:05:56;;;;;;;;;9.00;9.00;;;;;;;;5030487;28;11320;-82
2023/05/17 01:08:23;;;;;;;;;7.00;7.00;;;;;;;;5047454;28;11118;-81
2023/05/17 01:10:57;;;;;;;;;11.00;11.00;;;;;;;;5039713;28;11925;-82
2023/05/17 01:13:31;;;;;;;;;10.25;8.00;;;;;;;;5044248;28;11244;-82
2023/05/17 01:16:08;;;;;;;;;10.75;9.75;;;;;;;;5030229;28;11014;-81
2023/05/17 01:18:43;;;;;;;;;7.50;7.50;;;;;;;;5043456;28;11029;-82
2023/05/17 01:21:19;;;;;;;;;9.25;9.25;;;;;;;;5035181;28;10945;-82
2023/05/17 01:23:54;;;;;;;;;12.75;10.00;;;;;;;;5038358;28;11084;-83
2023/05/17 01:26:35;;;;;;;;;10.50;8.25;;;;;;;;5044840;28;10977;-82
2023/05/17 01:29:03;;;;;;;;;9.50;8.75;;;;;;;;5040517;28;11982;-83
2023/05/17 01:31:30;;;;;;;;;10.50;10.50;;;;;;;;5036518;28;11161;-82
2023/05/17 01:34:00;;;;;;;;;8.50;8.50;;;;;;;;5041318;28;11149;-81
2023/05/17 01:36:27;;;;;;;;;9.25;9.25;;;;;;;;5046102;28;11092;-82
2023/05/17 01:38:59;;;;;;;;;9.25;9.25;;;;;;;;5047271;28;10985;-82
2023/05/17 01:41:34;;;;;;;;;17.00;12.00;;;;;;;;5038442;28;11083;-82
2023/05/17 01:44:11;;;;;;;;;11.00;7.75;;;;;;;;5047943;28;11252;-81
2023/05/17 01:46:40;;;;;;;;;13.00;11.50;;;;;;;;5033250;28;10996;-81
2023/05/17 01:49:12;;;;;;;;;9.75;8.00;;;;;;;;5034259;28;11329;-80
2023/05/17 01:51:46;;;;;;;;;10.50;10.50;;;;;;;;5039706;28;11207;-81
2023/05/17 01:54:14;;;;;;;;;9.75;9.50;;;;;;;;5045954;28;11239;-81
2023/05/17 01:56:44;;;;;;;;;12.75;11.00;;;;;;;;5045567;28;11181;-81
2023/05/17 01:59:14;;;;;;;;;11.75;10.00;;;;;;;;5051509;28;12008;-81
2023/05/17 02:01:42;;;;;;;;;8.25;8.25;;;;;;;;5050717;28;11220;-81
2023/05/17 02:04:10;;;;;;;;;9.75;9.75;;;;;;;;5048615;28;11000;-81
2023/05/17 02:06:37;;;;;;;;;10.50;10.25;;;;;;;;5051097;28;11108;-80
2023/05/17 02:09:07;;;;;;;;;10.50;9.25;;;;;;;;5051677;28;11077;-81
2023/05/17 02:11:35;;;;;;;;;13.25;10.50;;;;;;;;5051049;28;11156;-81
2023/05/17 02:14:04;;;;;;;;;17.00;17.00;;;;;;;;5051752;28;11203;-79
2023/05/17 02:16:31;;;;;;;;;17.25;14.75;;;;;;;;5051985;28;11529;-80
2023/05/17 02:19:03;;;;;;;;;14.25;14.25;;;;;;;;5041881;28;11549;-81
2023/05/17 02:21:30;;;;;;;;;20.25;16.50;;;;;;;;5048899;28;11552;-81
2023/05/17 02:23:58;;;;;;;;;18.00;14.00;;;;;;;;5052280;28;11520;-81
2023/05/17 02:26:26;;;;;;;;;15.25;15.25;;;;;;;;5037050;28;11630;-81
2023/05/17 02:28:53;;;;;;;;;13.75;13.75;;;;;;;;5046615;28;12474;-81
2023/05/17 02:31:23;;;;;;;;;25.25;23.00;;;;;;;;5047432;28;11439;-81
2023/05/17 02:34:02;;;;;;;;;24.25;17.50;;;;;;;;5048789;28;11549;-81
2023/05/17 02:36:31;;;;;;;;;18.50;17.25;;;;;;;;5050518;28;11553;-81
2023/05/17 02:38:58;;;;;;;;;18.50;16.50;;;;;;;;5044746;28;11495;-81
2023/05/17 02:41:25;;;;;;;;;18.00;17.00;;;;;;;;5046375;28;11648;-80
2023/05/17 02:43:53;;;;;;;;;24.00;19.50;;;;;;;;5050159;28;12405;-81
2023/05/17 02:46:30;;;;;;;;;19.00;19.00;;;;;;;;5049249;28;11957;-81
2023/05/17 02:48:57;;;;;;;;;17.00;16.50;;;;;;;;5048857;28;11673;-83
2023/05/17 02:51:26;;;;;;;;;18.25;18.25;;;;;;;;5038352;28;11488;-80
2023/05/17 02:53:53;;;;;;;;;25.00;19.50;;;;;;;;5049641;28;11614;-82
2023/05/17 02:56:21;;;;;;;;;19.75;17.25;;;;;;;;5040911;28;11550;-81
2023/05/17 02:58:48;;;;;;;;;19.25;13.75;;;;;;;;5042897;28;11584;-82
2023/05/17 03:01:15;;;;;;;;;17.75;17.50;;;;;;;;5046665;28;11571;-81
2023/05/17 03:03:44;;;;;;;;;19.00;18.25;;;;;;;;5047668;28;11639;-81
2023/05/17 03:06:11;;;;;;;;;22.75;20.25;;;;;;;;5039814;28;11554;-81
2023/05/17 03:08:38;;;;;;;;;21.50;20.50;;;;;;;;5048565;28;11507;-81
2023/05/17 03:11:06;;;;;;;;;17.50;17.50;;;;;;;;5049642;28;11530;-80
2023/05/17 03:13:33;;;;;;;;;22.50;22.50;;;;;;;;5044654;28;11648;-80
2023/05/17 03:16:02;;;;;;;;;19.00;17.50;;;;;;;;5044738;28;11681;-81
2023/05/17 03:18:30;;;;;;;;;19.50;18.50;;;;;;;;5044650;28;11513;-81
2023/05/17 03:21:00;;;;;;;;;23.00;20.75;;;;;;;;5037449;28;11532;-81
2023/05/17 03:23:44;;;;;;;;;18.75;14.75;;;;;;;;5048264;28;11515;-81
2023/05/17 03:26:11;;;;;;;;;17.00;17.00;;;;;;;;5044649;28;11577;-81
2023/05/17 03:28:38;;;;;;;;;16.25;13.25;;;;;;;;5041876;28;11624;-81
2023/05/17 03:31:05;;;;;;;;;23.25;19.75;;;;;;;;5046372;28;11456;-81
2023/05/17 03:33:33;;;;;;;;;23.25;19.00;;;;;;;;5037302;28;11522;-81
2023/05/17 03:36:01;;;;;;;;;18.25;18.25;;;;;;;;5037548;28;11513;-81
2023/05/17 03:38:31;;;;;;;;;20.00;20.00;;;;;;;;5045418;28;11641;-81
2023/05/17 03:41:03;;;;;;;;;23.25;20.25;;;;;;;;5047651;28;11592;-81
2023/05/17 03:43:31;;;;;;;;;17.75;15.75;;;;;;;;5050896;28;11669;-80
2023/05/17 03:46:00;;;;;;;;;17.00;16.75;;;;;;;;5048638;28;11639;-80
2023/05/17 03:48:30;;;;;;;;;18.25;18.25;;;;;;;;5044202;28;11638;-81
2023/05/17 03:50:57;;;;;;;;;19.75;17.75;;;;;;;;5039133;28;11519;-81
2023/05/17 03:53:26;;;;;;;;;20.25;18.50;;;;;;;;5043695;28;11672;-80
2023/05/17 03:55:53;;;;;;;;;19.75;14.75;;;;;;;;5038063;28;11572;-80
2023/05/17 03:58:24;;;;;;;;;19.25;19.25;;;;;;;;5043716;28;11656;-80
2023/05/17 04:00:51;;;;;;;;;15.75;14.25;;;;;;;;5044114;28;11624;-80
2023/05/17 04:03:18;;;;;;;;;21.75;17.00;;;;;;;;5043648;28;11661;-80
2023/05/17 04:05:46;;;;;;;;;20.75;17.25;;;;;;;;5038735;28;11533;-80
2023/05/17 04:08:13;;;;;;;;;15.75;15.75;;;;;;;;5044169;28;11609;-80
2023/05/17 04:10:42;;;;;;;;;21.00;18.00;;;;;;;;5042133;28;11574;-81
2023/05/17 04:13:09;;;;;;;;;17.00;15.50;;;;;;;;5040164;28;11677;-79
2023/05/17 04:15:37;;;;;;;;;21.00;21.00;;;;;;;;5045974;28;11621;-86
2023/05/17 04:18:04;;;;;;;;;22.25;16.75;;;;;;;;5040603;28;11570;-84
2023/05/17 04:20:31;;;;;;;;;15.25;13.75;;;;;;;;5044588;28;11576;-84
2023/05/17 04:22:59;;;;;;;;;18.75;16.25;;;;;;;;5036392;28;11590;-85
2023/05/17 04:25:26;;;;;;;;;16.75;14.75;;;;;;;;5044532;28;11591;-84
2023/05/17 04:27:55;;;;;;;;;19.00;14.25;;;;;;;;5046920;28;11588;-86
2023/05/17 04:30:23;;;;;;;;;22.50;17.00;;;;;;;;5047581;28;12124;-84
2023/05/17 04:32:51;;;;;;;;;14.75;14.75;;;;;;;;5041585;28;11525;-83
2023/05/17 04:35:19;;;;;;;;;14.25;13.75;;;;;;;;5041574;28;11684;-85
2023/05/17 04:37:47;;;;;;;;;17.75;16.75;;;;;;;;5043458;28;11515;-84
2023/05/17 04:40:15;;;;;;;;;13.00;13.00;;;;;;;;5045273;28;11588;-86
2023/05/17 04:42:42;;;;;;;;;19.25;17.25;;;;;;;;5045889;28;11601;-84
2023/05/17 04:45:13;;;;;;;;;24.00;21.00;;;;;;;;5035111;28;11591;-83
2023/05/17 04:47:40;;;;;;;;;18.50;18.50;;;;;;;;5037609;28;11548;-82
2023/05/17 04:50:08;;;;;;;;;16.50;14.75;;;;;;;;5042098;28;11637;-83
2023/05/17 04:52:35;;;;;;;;;18.75;16.75;;;;;;;;5042801;28;11522;-82
2023/05/17 04:55:04;;;;;;;;;16.75;12.75;;;;;;;;5048309;28;11719;-85
2023/05/17 04:57:31;;;;;;;;;15.00;15.00;;;;;;;;5045735;28;11614;-83
2023/05/17 04:59:59;;;;;;;;;16.75;16.75;;;;;;;;5043676;28;11520;-84
2023/05/17 05:02:29;;;;;;;;;17.25;15.00;;;;;;;;5047614;28;11443;-82
2023/05/17 05:04:56;;;;;;;;;17.50;16.25;;;;;;;;5047715;28;12414;-82
2023/05/17 05:07:23;;;;;;;;;16.75;15.25;;;;;;;;5046374;28;11525;-83
2023/05/17 05:09:51;;;;;;;;;21.75;20.75;;;;;;;;5045519;28;11573;-82
2023/05/17 05:12:19;;;;;;;;;11.50;11.50;;;;;;;;5040007;28;11675;-84
2023/05/17 05:14:55;;;;;;;;;14.00;14.00;;;;;;;;5043570;28;11516;-82
2023/05/17 05:17:23;;;;;;;;;14.75;14.75;;;;;;;;5036996;28;11477;-84
2023/05/17 05:19:52;;;;;;;;;17.75;16.75;;;;;;;;5038452;28;11525;-85
2023/05/17 05:22:19;;;;;;;;;15.00;15.00;;;;;;;;5043005;28;11532;-81
2023/05/17 05:24:54;;;;;;;;;16.00;14.00;;;;;;;;5045389;28;11508;-85
2023/05/17 05:27:21;;;;;;;;;20.75;14.00;;;;;;;;5044475;28;11660;-81
2023/05/17 05:29:48;;;;;;;;;20.75;18.75;;;;;;;;5041034;28;11530;-81
2023/05/17 05:32:16;;;;;;;;;20.75;16.50;;;;;;;;5049606;28;11575;-82
2023/05/17 05:34:43;;;;;;;;;17.75;15.75;;;;;;;;5047188;28;11656;-83
2023/05/17 05:37:12;;;;;;;;;11.50;10.50;;;;;;;;5049765;28;11520;-82
2023/05/17 05:39:39;;;;;;;;;14.00;12.00;;;;;;;;5050396;28;11576;-81
2023/05/17 05:42:07;;;;;;;;;20.00;18.75;;;;;;;;5050616;28;11641;-82
2023/05/17 05:44:34;;;;;;;;;23.50;22.50;;;;;;;;5049781;28;11681;-82
2023/05/17 05:47:05;;;;;;;;;19.00;16.00;;;;;;;;5050784;28;11605;-83
2023/05/17 05:49:33;;;;;;;;;19.75;19.25;;;;;;;;5050361;28;11341;-82
2023/05/17 05:52:00;;;;;;;;;18.75;18.75;;;;;;;;5049401;28;11528;-83
2023/05/17 05:54:29;;;;;;;;;18.75;14.50;;;;;;;;5050478;28;11510;-82
2023/05/17 05:56:56;;;;;;;;;19.75;17.25;;;;;;;;5050475;28;11286;-82
2023/05/17 05:59:23;;;;;;;;;15.25;15.25;;;;;;;;5051187;28;11607;-82
2023/05/17 06:01:50;;;;;;;;;18.00;13.00;;;;;;;;5050972;28;11469;-82
2023/05/17 06:04:17;;;;;;;;;15.00;12.75;;;;;;;;5050437;28;11404;-82
2023/05/17 06:06:45;;;;;;;;;13.75;13.75;;;;;;;;5050253;28;11319;-82
2023/05/17 06:09:12;;;;;;;;;11.00;11.00;;;;;;;;5049068;28;11271;-82
2023/05/17 06:11:41;;;;;;;;;16.25;13.00;;;;;;;;5046841;28;11164;-83
2023/05/17 06:14:08;;;;;;;;;17.25;15.00;;;;;;;;5043738;28;11240;-83
2023/05/17 06:16:36;;;;;;;;;20.25;18.50;;;;;;;;5049476;28;11052;-79
2023/05/17 06:19:04;;;;;;;;;20.25;17.75;;;;;;;;5046546;28;11222;-77
2023/05/17 06:21:31;;;;;;;;;13.50;13.50;;;;;;;;5048904;28;11117;-78
2023/05/17 06:24:01;;;;;;;;;20.25;16.25;;;;;;;;5049415;28;11226;-78
2023/05/17 06:26:28;;;;;;;;;18.25;18.25;;;;;;;;5045986;28;11279;-82
2023/05/17 06:28:57;;;;;;;;;20.50;18.25;;;;;;;;5049389;28;11348;-79
2023/05/17 06:31:24;;;;;;;;;15.50;15.50;;;;;;;;5048179;28;11335;-80
2023/05/17 06:33:52;;;;;;;;;20.50;19.50;;;;;;;;5049127;28;11950;-78
2023/05/17 06:36:19;;;;;;;;;20.75;15.25;;;;;;;;5048798;28;11296;-78
2023/05/17 06:38:46;;;;;;;;;19.50;16.75;;;;;;;;5049204;28;11098;-79
2023/05/17 06:41:13;;;;;;;;;16.25;16.25;;;;;;;;5048590;28;11109;-78
2023/05/17 06:43:40;;;;;;;;;22.75;21.50;;;;;;;;5048190;28;10978;-80
2023/05/17 06:46:09;;;;;;;;;15.25;15.25;;;;;;;;5048700;28;10983;-79
2023/05/17 06:48:36;;;;;;;;;15.25;15.25;;;;;;;;5048731;28;10978;-78
2023/05/17 06:51:03;;;;;;;;;22.50;20.75;;;;;;;;5048970;28;10765;-78
2023/05/17 06:53:31;;;;;;;;;24.00;22.00;;;;;;;;5047532;28;10831;-78
2023/05/17 06:55:58;;;;;;;;;16.75;16.50;;;;;;;;5048670;28;10985;-78
2023/05/17 06:58:25;;;;;;;;;15.00;15.00;;;;;;;;5047646;28;10754;-80
2023/05/17 07:00:56;;;;;;;;;17.50;17.50;;;;;;;;5047634;28;10710;-79
2023/05/17 07:03:25;;;;;;;;;18.00;15.00;;;;;;;;5048205;28;10750;-80
2023/05/17 07:05:52;;;;;;;;;22.25;20.25;;;;;;;;5048276;28;10864;-82
2023/05/17 07:08:19;;;;;;;;;16.25;16.25;;;;;;;;5048131;28;10628;-78
2023/05/17 07:10:46;;;;;;;;;17.00;13.25;;;;;;;;5048316;28;10750;-78
2023/05/17 07:13:14;;;;;;;;;20.75;16.75;;;;;;;;5048112;28;10688;-80
2023/05/17 07:15:41;;;;;;;;;17.25;15.75;;;;;;;;5048815;28;10954;-81
2023/05/17 07:18:09;;;;;;;;;19.50;16.75;;;;;;;;5047910;28;10658;-81
2023/05/17 07:20:37;;;;;;;;;23.25;19.50;;;;;;;;5048081;28;10569;-80
2023/05/17 07:23:04;;;;;;;;;17.00;15.50;;;;;;;;5048047;28;10605;-79
2023/05/17 07:25:32;;;;;;;;;19.75;17.00;;;;;;;;5045618;28;10333;-80
2023/05/17 07:27:59;;;;;;;;;17.25;16.00;;;;;;;;5048074;28;10552;-79
2023/05/17 07:30:26;;;;;;;;;19.75;18.50;;;;;;;;5048298;28;10698;-80
2023/05/17 07:32:54;;;;;;;;;24.25;16.50;;;;;;;;5047878;28;10396;-80
2023/05/17 07:35:23;;;;;;;;;20.00;18.00;;;;;;;;5048021;28;10465;-80
2023/05/17 07:37:52;;;;;;;;;19.50;18.00;;;;;;;;5044998;28;10521;-81
2023/05/17 07:40:20;;;;;;;;;21.25;17.50;;;;;;;;5047741;28;10334;-78
2023/05/17 07:42:48;;;;;;;;;18.75;18.75;;;;;;;;5047589;28;10368;-79
2023/05/17 07:45:15;;;;;;;;;22.75;18.50;;;;;;;;5048491;28;10039;-79
2023/05/17 07:47:42;;;;;;;;;17.00;14.25;;;;;;;;5048635;28;10201;-79
2023/05/17 07:50:10;;;;;;;;;17.75;17.75;;;;;;;;5048627;28;10215;-79
2023/05/17 07:52:38;;;;;;;;;18.75;17.25;;;;;;;;5048212;28;10073;-80
2023/05/17 07:55:07;;;;;;;;;11.75;11.75;;;;;;;;5047948;28;10081;-79
2023/05/17 07:57:37;;;;;;;;;15.50;13.25;;;;;;;;5046849;28;10686;-77
2023/05/17 08:00:07;;;;;;;;;12.00;12.00;;;;;;;;5042673;28;9787;-77
2023/05/17 08:02:34;;;;;;;;;17.00;16.00;;;;;;;;5044303;28;9877;-78
2023/05/17 08:05:02;;;;;;;;;10.25;10.25;;;;;;;;5047037;28;9895;-78
2023/05/17 08:07:29;;;;;;;;;18.50;16.50;;;;;;;;5046735;28;9710;-78
2023/05/17 08:09:56;;;;;;;;;12.25;10.00;;;;;;;;5047170;28;9990;-77
2023/05/17 08:12:25;;;;;;;;;17.00;13.25;;;;;;;;5047089;28;9657;-77
2023/05/17 08:14:52;;;;;;;;;15.50;13.25;;;;;;;;5047481;28;9603;-77
2023/05/17 08:17:19;;;;;;;;;11.50;11.50;;;;;;;;5046989;28;9557;-77
2023/05/17 08:19:46;;;;;;;;;10.67;10.00;;;;;;;;5046859;28;9478;-77
2023/05/17 08:22:14;;;;;;;;;11.00;11.00;;;;;;;;5046073;28;9398;-77
2023/05/17 08:24:43;;;;;;;;;10.00;7.00;;;;;;;;5044948;28;9501;-77
2023/05/17 08:27:11;;;;;;;;;8.67;8.00;;;;;;;;5047040;28;9190;-78
2023/05/17 08:29:39;;;;;;;;;9.67;9.67;;;;;;;;5047002;28;9203;-79
2023/05/17 08:32:07;;;;;;;;;8.50;7.50;;;;;;;;5038526;28;8897;-79
2023/05/17 08:34:35;;;;;;;;;7.25;7.25;;;;;;;;5046567;28;8864;-76
2023/05/17 08:37:02;;;;;;;;;6.00;6.00;;;;;;;;5047836;28;8993;-78
2023/05/17 08:39:30;;;;;;;;;9.75;8.25;;;;;;;;5046081;28;8857;-78
2023/05/17 08:41:58;;;;;;;;;6.25;4.75;;;;;;;;5047254;28;8853;-79
2023/05/17 08:44:27;;;;;;;;;11.00;6.00;;;;;;;;5041325;28;8854;-80
2023/05/17 08:46:59;;;;;;;;;5.00;5.00;;;;;;;;5041354;28;9636;-79
2023/05/17 08:49:29;;;;;;;;;6.75;5.00;;;;;;;;5046762;28;8866;-80
2023/05/17 08:51:59;;;;;;;;;4.50;4.25;;;;;;;;5046956;28;8893;-80
2023/05/17 08:54:26;;;;;;;;;3.00;3.00;;;;;;;;5046424;28;8916;-80
2023/05/17 08:56:56;;;;;;;;;9.25;7.50;;;;;;;;5046694;28;8848;-79
2023/05/17 08:59:23;;;;;;;;;8.00;8.00;;;;;;;;5046790;28;9000;-80
2023/05/17 09:01:55;;;;;;;;;6.50;6.50;;;;;;;;5046196;28;9521;-79
2023/05/17 09:04:24;;;;;;;;;8.50;7.25;;;;;;;;5046654;28;8960;-79
2023/05/17 09:06:52;;;;;;;;;7.25;4.50;;;;;;;;5049441;28;8865;-80
2023/05/17 09:09:20;;;;;;;;;6.00;5.75;;;;;;;;5042001;28;8865;-79
2023/05/17 09:11:47;;;;;;;;;6.50;6.00;;;;;;;;5042457;28;8887;-80
2023/05/17 09:14:16;;;;;;;;;5.75;5.50;;;;;;;;5050517;28;8854;-80
2023/05/17 09:16:43;;;;;;;;;5.75;5.00;;;;;;;;5050375;28;8897;-79
2023/05/17 09:19:16;;;;;;;;;6.00;4.00;;;;;;;;5040839;28;8845;-79
2023/05/17 09:21:46;;;;;;;;;6.75;4.25;;;;;;;;5050408;28;8838;-79
2023/05/17 09:24:14;;;;;;;;;6.00;6.00;;;;;;;;5050130;28;8865;-80
2023/05/17 09:26:42;;;;;;;;;4.75;4.75;;;;;;;;5048570;28;8845;-79
2023/05/17 09:29:10;;;;;;;;;4.50;4.50;;;;;;;;5050647;28;8872;-78
2023/05/17 09:31:37;;;;;;;;;5.50;5.50;;;;;;;;5050935;28;8845;-79
2023/05/17 09:34:06;;;;;;;;;5.75;5.00;;;;;;;;5051194;28;8884;-79
2023/05/17 09:36:40;;;;;;;;;6.75;5.50;;;;;;;;5050425;28;8877;-79
2023/05/17 09:39:10;;;;;;;;;3.75;3.75;;;;;;;;5051923;28;8841;-79
2023/05/17 09:41:43;;;;;;;;;4.75;3.00;;;;;;;;5052144;28;8881;-79
2023/05/17 09:44:12;;;;;;;;;2.25;2.25;;;;;;;;5051392;28;8954;-79
2023/05/17 09:46:42;;;;;;;;;3.50;3.25;;;;;;;;5050061;28;8860;-79
2023/05/17 09:49:09;;;;;;;;;3.00;3.00;;;;;;;;5032934;28;8848;-80
2023/05/17 09:51:40;;;;;;;;;2.75;2.75;;;;;;;;5049249;28;8886;-80
2023/05/17 09:54:08;;;;;;;;;2.25;2.25;;;;;;;;5049598;28;9704;-78
2023/05/17 09:56:36;;;;;;;;;3.50;2.75;;;;;;;;5049844;28;8845;-80
2023/05/17 09:59:06;;;;;;;;;3.75;3.75;;;;;;;;5050517;28;8869;-79
2023/05/17 10:01:33;;;;;;;;;2.75;2.75;;;;;;;;5049854;28;8802;-79
2023/05/17 10:04:01;;;;;;;;;4.00;3.00;;;;;;;;5052283;28;9733;-83
2023/05/17 10:06:30;;;;;;;;;3.00;3.00;;;;;;;;5053208;28;8861;-80
2023/05/17 10:08:59;;;;;;;;;0.00;0.00;;;;;;;;5041531;28;8888;-84
2023/05/17 10:11:32;;;;;;;;;3.00;3.00;;;;;;;;5052263;28;8873;-82
2023/05/17 10:14:08;;;;;;;;;1.00;1.00;;;;;;;;5044372;28;8873;-82
2023/05/17 10:16:35;;;;;;;;;2.00;1.00;;;;;;;;5033182;28;8978;-83
2023/05/17 10:19:03;;;;;;;;;4.25;2.25;;;;;;;;5047534;28;8874;-76
2023/05/17 10:21:31;;;;;;;;;4.25;2.75;;;;;;;;5047485;28;8879;-80
2023/05/17 10:24:01;;;;;;;;;2.25;2.25;;;;;;;;5049962;28;9706;-80
2023/05/17 10:26:29;;;;;;;;;2.50;2.50;;;;;;;;5048440;28;8837;-80
2023/05/17 10:29:00;;;;;;;;;2.75;2.75;;;;;;;;5047956;28;8880;-79
2023/05/17 10:31:32;;;;;;;;;4.00;4.00;;;;;;;;5045343;28;8815;-81
2023/05/17 10:34:02;;;;;;;;;2.00;2.00;;;;;;;;5045984;28;8911;-83
2023/05/17 10:36:31;;;;;;;;;2.00;2.00;;;;;;;;5045882;28;8860;-81
2023/05/17 10:39:00;;;;;;;;;4.50;3.00;;;;;;;;5049942;28;8873;-80
2023/05/17 10:41:30;;;;;;;;;4.00;2.75;;;;;;;;5047349;28;9687;-76
2023/05/17 10:43:58;;;;;;;;;2.75;2.75;;;;;;;;5048015;28;9026;-77
2023/05/17 10:46:25;;;;;;;;;4.50;3.00;;;;;;;;5048700;28;8857;-82
2023/05/17 10:48:53;;;;;;;;;2.25;2.25;;;;;;;;5049525;28;8879;-86
2023/05/17 10:51:26;;;;;;;;;1.75;1.75;;;;;;;;5041520;28;9016;-83
2023/05/17 10:54:10;;;;;;;;;2.00;2.00;;;;;;;;5049394;28;8869;-80
2023/05/17 10:56:41;;;;;;;;;2.25;2.00;;;;;;;;5033014;28;9643;-79
2023/05/17 10:59:20;;;;;;;;;4.25;2.75;;;;;;;;5042256;28;8876;-79
2023/05/17 11:01:57;;;;;;;;;3.25;2.00;;;;;;;;5032600;28;8937;-82
2023/05/17 11:04:26;;;;;;;;;2.75;2.75;;;;;;;;5042649;28;8854;-79
2023/05/17 11:06:56;;;;;;;;;2.00;2.00;;;;;;;;5047710;28;8871;-80
2023/05/17 11:09:25;;;;;;;;;2.25;2.25;;;;;;;;5044187;28;8889;-81
2023/05/17 11:12:06;;;;;;;;;2.50;2.50;;;;;;;;5044753;28;9003;-81
2023/05/17 11:14:49;;;;;;;;;2.75;2.00;;;;;;;;5041194;28;8996;-79
2023/05/17 11:17:18;;;;;;;;;2.75;2.75;;;;;;;;5045896;28;8833;-76
2023/05/17 11:20:27;;;;;;;;;2.80;2.80;;;;;;;;5041826;28;8918;-80
2023/05/17 11:22:58;;;;;;;;;6.00;4.00;;;;;;;;5012662;28;8873;-81
2023/05/17 11:25:28;;;;;;;;;5.50;4.00;;;;;;;;5037902;28;8842;-81
2023/05/17 11:27:56;;;;;;;;;3.25;3.25;;;;;;;;5048976;28;8838;-81
2023/05/17 11:30:25;;;;;;;;;2.25;2.25;;;;;;;;5049352;28;8765;-80
2023/05/17 11:32:54;;;;;;;;;1.00;1.00;;;;;;;;5049403;28;8932;-80
2023/05/17 11:35:26;;;;;;;;;3.00;3.00;;;;;;;;5042847;28;9732;-76
2023/05/17 11:37:54;;;;;;;;;2.00;2.00;;;;;;;;5035460;28;8853;-80
2023/05/17 11:40:27;;;;;;;;;3.00;3.00;;;;;;;;5038325;28;8976;-80
2023/05/17 11:43:14;;;;;;;;;5.00;2.00;;;;;;;;5045286;28;8869;-77
2023/05/17 11:45:44;;;;;;;;;3.60;1.80;;;;;;;;5042166;28;8876;-80
2023/05/17 11:48:12;;;;;;;;;4.40;3.20;;;;;;;;5047737;28;8866;-79
2023/05/17 11:50:39;;;;;;;;;5.25;4.00;;;;;;;;5048142;28;8991;-77
2023/05/17 11:53:07;;;;;;;;;1.80;1.80;;;;;;;;5047953;28;9004;-77
2023/05/17 11:55:39;;;;;;;;;4.00;2.00;;;;;;;;5047820;28;8845;-77
2023/05/17 11:58:08;;;;;;;;;3.00;3.00;;;;;;;;5037165;28;8872;-78
2023/05/17 12:00:37;;;;;;;;;2.80;2.80;;;;;;;;5046380;28;8773;-78
2023/05/17 12:03:21;;;;;;;;;3.20;2.60;;;;;;;;5048030;28;8854;-77
2023/05/17 12:05:49;;;;;;;;;1.00;1.00;;;;;;;;5047142;28;9634;-78
2023/05/17 12:08:17;;;;;;;;;4.40;2.40;;;;;;;;5047272;28;8980;-77
2023/05/17 12:10:48;;;;;;;;;2.40;2.00;;;;;;;;5045588;28;8865;-80
2023/05/17 12:13:15;;;;;;;;;3.80;2.00;;;;;;;;5047191;28;9685;-77
2023/05/17 12:15:46;;;;;;;;;4.00;3.80;;;;;;;;5047305;28;8849;-77
2023/05/17 12:18:13;;;;;;;;;3.00;2.25;;;;;;;;5047266;28;8850;-77
2023/05/17 12:20:54;;;;;;;;;2.60;1.00;;;;;;;;5046683;28;8868;-77
2023/05/17 12:23:27;;;;;;;;;3.00;3.00;;;;;;;;5046313;28;8846;-76
2023/05/17 12:26:07;;;;;;;;;1.80;1.80;;;;;;;;5044119;28;8853;-77
2023/05/17 12:28:35;;;;;;;;;0.00;0.00;;;;;;;;5047094;28;8884;-77
2023/05/17 12:31:03;;;;;;;;;3.20;2.00;;;;;;;;5046461;28;8802;-78
2023/05/17 12:33:31;;;;;;;;;2.00;2.00;;;;;;;;5047701;28;8877;-76
2023/05/17 12:35:59;;;;;;;;;2.00;2.00;;;;;;;;5046369;28;9671;-79
2023/05/17 12:38:30;;;;;;;;;2.60;2.00;;;;;;;;5044713;28;8887;-77
2023/05/17 12:40:59;;;;;;;;;3.25;3.25;;;;;;;;5041744;28;8927;-78
2023/05/17 12:43:28;;;;;;;;;4.00;4.00;;;;;;;;5033469;28;8860;-79
2023/05/17 12:46:01;;;;;;;;;2.00;2.00;;;;;;;;5038755;28;8856;-77
2023/05/17 12:48:29;;;;;;;;;4.00;4.00;;;;;;;;5039075;28;9804;-78
2023/05/17 12:50:56;;;;;;;;;3.75;3.75;;;;;;;;5047783;28;8932;-78
2023/05/17 12:53:24;;;;;;;;;2.00;2.00;;;;;;;;5047146;28;8850;-79
2023/05/17 12:55:57;;;;;;;;;4.25;4.25;;;;;;;;5052771;28;8882;-79
2023/05/17 12:58:25;;;;;;;;;1.00;1.00;;;;;;;;5051954;28;8846;-77
2023/05/17 13:01:01;;;;;;;;;2.00;1.80;;;;;;;;5046615;28;8823;-73
2023/05/17 13:03:29;;;;;;;;;2.00;2.00;;;;;;;;5047132;28;8851;-78
2023/05/17 13:06:04;;;;;;;;;2.80;2.80;;;;;;;;5047024;28;8986;-80
2023/05/17 13:08:32;;;;;;;;;5.50;3.50;;;;;;;;5046864;28;8859;-79
2023/05/17 13:11:09;;;;;;;;;4.20;2.60;;;;;;;;5047946;28;8965;-80
2023/05/17 13:13:37;;;;;;;;;4.00;4.00;;;;;;;;5047087;28;8871;-76
2023/05/17 13:16:06;;;;;;;;;4.00;4.00;;;;;;;;5047791;28;8962;-79
2023/05/17 13:18:48;;;;;;;;;4.25;3.75;;;;;;;;5046795;28;8867;-79
2023/05/17 13:21:16;;;;;;;;;5.00;5.00;;;;;;;;5047109;28;8854;-79
2023/05/17 13:23:44;;;;;;;;;4.00;4.00;;;;;;;;5039000;28;8994;-77
2023/05/17 13:26:13;;;;;;;;;2.25;2.25;;;;;;;;5043790;28;8878;-80
2023/05/17 13:28:41;;;;;;;;;5.25;3.25;;;;;;;;5047413;28;8889;-77
2023/05/17 13:31:09;;;;;;;;;1.50;1.00;;;;;;;;5040797;28;8824;-77
2023/05/17 13:33:37;;;;;;;;;3.75;3.75;;;;;;;;5040541;28;8872;-78
2023/05/17 13:36:05;;;;;;;;;2.75;2.75;;;;;;;;5046082;28;8962;-79
2023/05/17 13:38:32;;;;;;;;;3.00;3.00;;;;;;;;5043493;28;8878;-76
2023/05/17 13:40:59;;;;;;;;;3.00;3.00;;;;;;;;5038627;28;8882;-78
2023/05/17 13:43:26;;;;;;;;;3.00;3.00;;;;;;;;5046176;28;8888;-77
2023/05/17 13:45:57;;;;;;;;;3.50;3.00;;;;;;;;5046438;28;8919;-79
2023/05/17 13:48:26;;;;;;;;;3.00;3.00;;;;;;;;5044827;28;8880;-78
2023/05/17 13:50:53;;;;;;;;;2.25;2.25;;;;;;;;5046196;28;8853;-76
2023/05/17 13:53:20;;;;;;;;;1.50;1.00;;;;;;;;5047015;28;8984;-77
2023/05/17 13:55:47;;;;;;;;;2.00;2.00;;;;;;;;5042421;28;9655;-78
2023/05/17 13:58:16;;;;;;;;;3.00;3.00;;;;;;;;5049096;28;8885;-78
2023/05/17 14:00:44;;;;;;;;;2.00;2.00;;;;;;;;5046127;28;8847;-78
2023/05/17 14:03:12;;;;;;;;;2.75;2.75;;;;;;;;5050427;28;8851;-78
2023/05/17 14:05:41;;;;;;;;;4.25;3.75;;;;;;;;5051193;28;8846;-77
2023/05/17 14:08:13;;;;;;;;;4.00;4.00;;;;;;;;5051056;28;8863;-77
2023/05/17 14:10:43;;;;;;;;;3.00;3.00;;;;;;;;5048938;28;8888;-77
2023/05/17 14:15:55;;;;;;;;;3.00;3.00;;;;;;;;5037448;28;8865;-77
2023/05/17 14:18:22;;;;;;;;;3.50;3.50;;;;;;;;5041496;28;8990;-77
2023/05/17 14:20:52;;;;;;;;;5.25;4.00;;;;;;;;5045625;28;8960;-78
2023/05/17 14:23:19;;;;;;;;;4.00;4.00;;;;;;;;5034509;28;8839;-77
2023/05/17 14:25:51;;;;;;;;;4.00;4.00;;;;;;;;5040534;28;8894;-77
2023/05/17 14:28:19;;;;;;;;;5.50;3.75;;;;;;;;5043639;28;8872;-77
2023/05/17 14:30:46;;;;;;;;;4.00;4.00;;;;;;;;5047474;28;8782;-76
2023/05/17 14:33:13;;;;;;;;;4.25;4.25;;;;;;;;5049930;28;8903;-76
2023/05/17 14:35:41;;;;;;;;;4.00;4.00;;;;;;;;5050006;28;9593;-77
2023/05/17 14:38:09;;;;;;;;;3.75;3.75;;;;;;;;5050034;28;8881;-78
2023/05/17 14:40:37;;;;;;;;;2.25;2.25;;;;;;;;5048968;28;8885;-77
2023/05/17 14:43:05;;;;;;;;;5.33;5.33;;;;;;;;5043793;28;8984;-77
2023/05/17 14:45:33;;;;;;;;;4.00;4.00;;;;;;;;5046003;28;8873;-76
2023/05/17 14:48:01;;;;;;;;;6.25;5.25;;;;;;;;5038140;28;8875;-77
2023/05/17 14:50:31;;;;;;;;;4.00;4.00;;;;;;;;5036637;28;8923;-77